sensor_id;sensor_type;location;lat;lon;timestamp;pressure;altitude;pressure_sealevel;temperature;humidity
63088;BME280;49173;43.164;27.786;2022-12-13T00:01:26;99934.19;;;5.64;81.70
63088;BME280;49173;43.164;27.786;2022-12-13T00:03:53;99933.19;;;5.66;81.14
63088;BME280;49173;43.164;27.786;2022-12-13T00:06:19;99933.44;;;5.60;81.70
63088;BME280;49173;43.164;27.786;2022-12-13T00:08:45;99941.38;;;5.62;81.65
63088;BME280;49173;43.164;27.786;2022-12-13T00:11:13;99946.75;;;5.60;81.35
63088;BME280;49173;43.164;27.786;2022-12-13T00:13:40;99943.41;;;5.55;81.58
63088;BME280;49173;43.164;27.786;2022-12-13T00:16:22;99940.75;;;5.55;81.39
63088;BME280;49173;43.164;27.786;2022-12-13T00:19:20;99940.34;;;5.44;82.18
63088;BME280;49173;43.164;27.786;2022-12-13T00:21:46;99943.81;;;5.46;82.61
63088;BME280;49173;43.164;27.786;2022-12-13T00:24:12;99957.19;;;5.44;82.43
63088;BME280;49173;43.164;27.786;2022-12-13T00:26:39;99945.59;;;5.45;82.92
63088;BME280;49173;43.164;27.786;2022-12-13T00:29:06;99949.91;;;5.48;82.25
63088;BME280;49173;43.164;27.786;2022-12-13T00:31:32;99946.28;;;5.50;83.02
63088;BME280;49173;43.164;27.786;2022-12-13T00:33:59;99942.75;;;5.50;82.83
63088;BME280;49173;43.164;27.786;2022-12-13T00:36:25;99939.34;;;5.46;82.58
63088;BME280;49173;43.164;27.786;2022-12-13T00:38:51;99938.56;;;5.44;82.93
63088;BME280;49173;43.164;27.786;2022-12-13T00:41:26;99946.47;;;5.46;82.79
63088;BME280;49173;43.164;27.786;2022-12-13T00:43:54;99932.38;;;5.44;83.01
63088;BME280;49173;43.164;27.786;2022-12-13T00:46:20;99933.28;;;5.43;82.97
63088;BME280;49173;43.164;27.786;2022-12-13T00:48:51;99927.22;;;5.39;83.00
63088;BME280;49173;43.164;27.786;2022-12-13T00:51:19;99922.06;;;5.35;83.22
63088;BME280;49173;43.164;27.786;2022-12-13T00:53:46;99918.06;;;5.24;83.08
63088;BME280;49173;43.164;27.786;2022-12-13T00:56:14;99907.66;;;5.18;82.66
63088;BME280;49173;43.164;27.786;2022-12-13T00:58:42;99910.63;;;5.11;83.39
63088;BME280;49173;43.164;27.786;2022-12-13T01:01:11;99905.81;;;5.20;83.70
63088;BME280;49173;43.164;27.786;2022-12-13T01:03:38;99912.75;;;5.24;83.57
63088;BME280;49173;43.164;27.786;2022-12-13T01:06:34;99910.16;;;5.23;83.20
63088;BME280;49173;43.164;27.786;2022-12-13T01:09:01;99919.06;;;5.22;83.43
63088;BME280;49173;43.164;27.786;2022-12-13T01:11:27;99916.44;;;5.20;83.11
63088;BME280;49173;43.164;27.786;2022-12-13T01:14:14;99919.09;;;5.20;82.75
63088;BME280;49173;43.164;27.786;2022-12-13T01:16:40;99931.75;;;5.15;82.48
63088;BME280;49173;43.164;27.786;2022-12-13T01:19:05;99920.41;;;5.10;82.35
63088;BME280;49173;43.164;27.786;2022-12-13T01:21:31;99915.97;;;5.11;82.69
63088;BME280;49173;43.164;27.786;2022-12-13T01:24:02;99914.97;;;5.13;82.81
63088;BME280;49173;43.164;27.786;2022-12-13T01:26:29;99920.47;;;5.09;82.47
63088;BME280;49173;43.164;27.786;2022-12-13T01:28:55;99920.47;;;5.09;82.63
63088;BME280;49173;43.164;27.786;2022-12-13T01:31:21;99889.28;;;5.12;83.06
63088;BME280;49173;43.164;27.786;2022-12-13T01:33:47;99893.88;;;5.09;82.68
63088;BME280;49173;43.164;27.786;2022-12-13T01:36:19;99913.47;;;5.06;83.18
63088;BME280;49173;43.164;27.786;2022-12-13T01:38:45;99910.78;;;5.08;83.14
63088;BME280;49173;43.164;27.786;2022-12-13T01:41:17;99884.19;;;5.08;83.28
63088;BME280;49173;43.164;27.786;2022-12-13T01:46:14;99894.75;;;5.09;83.83
63088;BME280;49173;43.164;27.786;2022-12-13T01:48:44;99905.25;;;5.12;83.21
63088;BME280;49173;43.164;27.786;2022-12-13T01:51:14;99900.88;;;5.11;83.02
63088;BME280;49173;43.164;27.786;2022-12-13T01:53:42;99923.06;;;5.10;83.02
63088;BME280;49173;43.164;27.786;2022-12-13T01:56:15;99924.72;;;5.13;83.13
63088;BME280;49173;43.164;27.786;2022-12-13T01:58:43;99927.31;;;5.14;82.89
63088;BME280;49173;43.164;27.786;2022-12-13T02:01:10;99916.03;;;5.09;82.74
63088;BME280;49173;43.164;27.786;2022-12-13T02:03:36;99909.09;;;5.05;82.54
63088;BME280;49173;43.164;27.786;2022-12-13T02:06:09;99907.50;;;5.01;82.57
63088;BME280;49173;43.164;27.786;2022-12-13T02:08:37;99920.78;;;5.01;83.01
63088;BME280;49173;43.164;27.786;2022-12-13T02:11:05;99931.44;;;5.01;83.11
63088;BME280;49173;43.164;27.786;2022-12-13T02:13:32;99928.88;;;4.98;83.05
63088;BME280;49173;43.164;27.786;2022-12-13T02:16:09;99927.94;;;4.99;82.14
63088;BME280;49173;43.164;27.786;2022-12-13T02:18:46;99926.22;;;4.98;82.54
63088;BME280;49173;43.164;27.786;2022-12-13T02:21:23;99940.44;;;4.97;82.96
63088;BME280;49173;43.164;27.786;2022-12-13T02:29:13;99942.38;;;4.93;82.66
63088;BME280;49173;43.164;27.786;2022-12-13T02:34:31;99953.63;;;4.77;82.38
63088;BME280;49173;43.164;27.786;2022-12-13T02:45:48;99946.00;;;4.67;82.04
63088;BME280;49173;43.164;27.786;2022-12-13T02:48:23;99954.03;;;4.66;82.41
63088;BME280;49173;43.164;27.786;2022-12-13T02:50:52;99961.88;;;4.69;82.54
63088;BME280;49173;43.164;27.786;2022-12-13T02:53:19;99950.38;;;4.68;82.18
63088;BME280;49173;43.164;27.786;2022-12-13T02:55:46;99947.81;;;4.67;82.38
63088;BME280;49173;43.164;27.786;2022-12-13T02:58:15;99922.88;;;4.69;82.25
63088;BME280;49173;43.164;27.786;2022-12-13T03:10:30;99919.28;;;4.71;80.94
63088;BME280;49173;43.164;27.786;2022-12-13T03:12:57;99955.72;;;4.68;79.36
63088;BME280;49173;43.164;27.786;2022-12-13T03:15:58;99955.00;;;4.63;79.14
63088;BME280;49173;43.164;27.786;2022-12-13T03:18:32;99965.75;;;4.60;79.41
63088;BME280;49173;43.164;27.786;2022-12-13T03:21:06;99976.47;;;4.59;78.83
63088;BME280;49173;43.164;27.786;2022-12-13T03:23:45;100001.41;;;4.55;78.92
63088;BME280;49173;43.164;27.786;2022-12-13T03:26:19;99997.94;;;4.53;78.88
63088;BME280;49173;43.164;27.786;2022-12-13T03:28:45;99982.06;;;4.51;77.70
63088;BME280;49173;43.164;27.786;2022-12-13T03:31:11;99972.50;;;4.46;78.56
63088;BME280;49173;43.164;27.786;2022-12-13T03:33:36;99958.34;;;4.45;79.08
63088;BME280;49173;43.164;27.786;2022-12-13T03:36:04;99949.56;;;4.43;79.02
63088;BME280;49173;43.164;27.786;2022-12-13T03:38:40;99955.00;;;4.40;78.16
63088;BME280;49173;43.164;27.786;2022-12-13T03:41:12;99961.38;;;4.34;77.77
63088;BME280;49173;43.164;27.786;2022-12-13T03:43:40;99967.69;;;4.32;77.90
63088;BME280;49173;43.164;27.786;2022-12-13T03:46:06;99963.31;;;4.31;78.39
63088;BME280;49173;43.164;27.786;2022-12-13T03:48:32;99974.72;;;4.33;78.42
63088;BME280;49173;43.164;27.786;2022-12-13T03:50:58;99962.25;;;4.35;78.23
63088;BME280;49173;43.164;27.786;2022-12-13T03:53:25;99966.91;;;4.28;77.46
63088;BME280;49173;43.164;27.786;2022-12-13T03:55:51;99960.94;;;4.23;76.87
63088;BME280;49173;43.164;27.786;2022-12-13T03:58:16;99965.59;;;4.17;77.42
63088;BME280;49173;43.164;27.786;2022-12-13T04:00:43;99976.50;;;4.07;77.20
63088;BME280;49173;43.164;27.786;2022-12-13T04:03:09;99970.66;;;3.98;76.98
63088;BME280;49173;43.164;27.786;2022-12-13T04:05:34;99971.84;;;3.89;76.80
63088;BME280;49173;43.164;27.786;2022-12-13T04:08:00;99985.25;;;3.84;76.56
63088;BME280;49173;43.164;27.786;2022-12-13T04:10:26;99979.28;;;3.78;76.98
63088;BME280;49173;43.164;27.786;2022-12-13T04:12:53;99991.84;;;3.73;76.10
63088;BME280;49173;43.164;27.786;2022-12-13T04:15:38;99994.53;;;3.71;76.07
63088;BME280;49173;43.164;27.786;2022-12-13T04:18:04;100002.75;;;3.64;75.55
63088;BME280;49173;43.164;27.786;2022-12-13T04:20:30;100011.94;;;3.53;74.52
63088;BME280;49173;43.164;27.786;2022-12-13T04:22:55;100020.16;;;3.46;75.63
63088;BME280;49173;43.164;27.786;2022-12-13T04:25:21;100022.81;;;3.44;75.43
63088;BME280;49173;43.164;27.786;2022-12-13T04:27:47;100024.78;;;3.39;74.31
63088;BME280;49173;43.164;27.786;2022-12-13T04:30:16;100010.00;;;3.30;73.71
63088;BME280;49173;43.164;27.786;2022-12-13T04:32:42;100026.00;;;3.27;74.53
63088;BME280;49173;43.164;27.786;2022-12-13T04:35:07;100024.34;;;3.25;75.03
63088;BME280;49173;43.164;27.786;2022-12-13T04:37:33;100023.59;;;3.20;74.41
63088;BME280;49173;43.164;27.786;2022-12-13T04:39:59;100024.66;;;3.14;75.11
63088;BME280;49173;43.164;27.786;2022-12-13T04:42:30;100030.06;;;3.10;74.99
63088;BME280;49173;43.164;27.786;2022-12-13T04:44:57;100034.38;;;3.14;75.70
63088;BME280;49173;43.164;27.786;2022-12-13T04:47:26;100034.38;;;3.14;73.83
63088;BME280;49173;43.164;27.786;2022-12-13T04:49:52;100030.81;;;3.15;74.13
63088;BME280;49173;43.164;27.786;2022-12-13T04:52:20;100023.88;;;3.11;74.29
63088;BME280;49173;43.164;27.786;2022-12-13T04:54:52;100018.59;;;3.11;73.95
63088;BME280;49173;43.164;27.786;2022-12-13T04:57:44;100035.34;;;3.11;74.02
63088;BME280;49173;43.164;27.786;2022-12-13T05:00:20;100025.78;;;3.06;72.59
63088;BME280;49173;43.164;27.786;2022-12-13T05:02:48;100028.69;;;2.98;72.27
63088;BME280;49173;43.164;27.786;2022-12-13T05:05:30;100026.28;;;2.89;73.53
63088;BME280;49173;43.164;27.786;2022-12-13T05:08:00;100028.16;;;2.85;73.67
63088;BME280;49173;43.164;27.786;2022-12-13T05:10:46;100039.75;;;2.81;73.24
63088;BME280;49173;43.164;27.786;2022-12-13T05:13:13;100046.97;;;2.76;73.61
63088;BME280;49173;43.164;27.786;2022-12-13T05:16:13;100047.19;;;2.68;73.64
63088;BME280;49173;43.164;27.786;2022-12-13T05:19:01;100048.84;;;2.72;74.06
63088;BME280;49173;43.164;27.786;2022-12-13T05:21:27;100055.09;;;2.70;73.21
63088;BME280;49173;43.164;27.786;2022-12-13T05:24:02;100053.31;;;2.70;73.33
63088;BME280;49173;43.164;27.786;2022-12-13T05:26:32;100052.53;;;2.67;72.79
63088;BME280;49173;43.164;27.786;2022-12-13T05:29:22;100058.03;;;2.59;71.88
63088;BME280;49173;43.164;27.786;2022-12-13T05:31:51;100069.00;;;2.45;71.26
63088;BME280;49173;43.164;27.786;2022-12-13T05:34:17;100077.09;;;2.41;71.24
63088;BME280;49173;43.164;27.786;2022-12-13T05:36:43;100072.97;;;2.29;71.09
63088;BME280;49173;43.164;27.786;2022-12-13T05:39:10;100082.69;;;2.29;71.54
63088;BME280;49173;43.164;27.786;2022-12-13T05:41:36;100088.97;;;2.25;71.74
63088;BME280;49173;43.164;27.786;2022-12-13T05:44:03;100098.91;;;2.15;70.91
63088;BME280;49173;43.164;27.786;2022-12-13T05:46:34;100092.91;;;2.08;72.18
63088;BME280;49173;43.164;27.786;2022-12-13T05:49:01;100110.56;;;2.08;71.85
63088;BME280;49173;43.164;27.786;2022-12-13T05:51:31;100119.34;;;2.10;71.85
63088;BME280;49173;43.164;27.786;2022-12-13T05:54:12;100119.19;;;2.16;72.42
63088;BME280;49173;43.164;27.786;2022-12-13T05:56:43;100112.97;;;2.17;72.15
63088;BME280;49173;43.164;27.786;2022-12-13T05:59:16;100120.91;;;2.18;71.28
63088;BME280;49173;43.164;27.786;2022-12-13T06:01:43;100128.00;;;2.16;71.84
63088;BME280;49173;43.164;27.786;2022-12-13T06:04:11;100129.59;;;2.24;71.63
63088;BME280;49173;43.164;27.786;2022-12-13T06:06:44;100142.78;;;2.25;71.11
63088;BME280;49173;43.164;27.786;2022-12-13T06:09:54;100140.06;;;2.28;71.14
63088;BME280;49173;43.164;27.786;2022-12-13T06:12:22;100148.69;;;2.36;70.90
63088;BME280;49173;43.164;27.786;2022-12-13T06:14:49;100147.69;;;2.42;71.53
63088;BME280;49173;43.164;27.786;2022-12-13T06:17:19;100160.09;;;2.40;69.63
63088;BME280;49173;43.164;27.786;2022-12-13T06:19:49;100160.97;;;2.40;68.67
63088;BME280;49173;43.164;27.786;2022-12-13T06:22:16;100160.09;;;2.38;69.08
63088;BME280;49173;43.164;27.786;2022-12-13T06:24:43;100163.66;;;2.37;69.25
63088;BME280;49173;43.164;27.786;2022-12-13T06:27:10;100165.50;;;2.35;68.63
63088;BME280;49173;43.164;27.786;2022-12-13T06:29:36;100163.09;;;2.25;68.27
63088;BME280;49173;43.164;27.786;2022-12-13T06:32:03;100172.03;;;2.20;68.25
63088;BME280;49173;43.164;27.786;2022-12-13T06:34:35;100178.34;;;2.15;68.86
63088;BME280;49173;43.164;27.786;2022-12-13T06:37:04;100185.41;;;2.14;68.40
63088;BME280;49173;43.164;27.786;2022-12-13T06:39:32;100192.63;;;2.08;68.77
63088;BME280;49173;43.164;27.786;2022-12-13T06:42:02;100204.00;;;2.11;69.65
63088;BME280;49173;43.164;27.786;2022-12-13T06:44:31;100212.72;;;2.16;70.41
63088;BME280;49173;43.164;27.786;2022-12-13T06:47:05;100209.94;;;2.23;68.93
63088;BME280;49173;43.164;27.786;2022-12-13T06:49:33;100216.09;;;2.23;68.78
63088;BME280;49173;43.164;27.786;2022-12-13T06:51:59;100222.38;;;2.19;67.93
63088;BME280;49173;43.164;27.786;2022-12-13T06:54:25;100233.84;;;2.19;69.18
63088;BME280;49173;43.164;27.786;2022-12-13T06:56:53;100241.75;;;2.21;69.21
63088;BME280;49173;43.164;27.786;2022-12-13T06:59:19;100243.63;;;2.16;68.57
63088;BME280;49173;43.164;27.786;2022-12-13T07:01:50;100233.84;;;2.19;69.45
63088;BME280;49173;43.164;27.786;2022-12-13T07:04:19;100236.31;;;2.27;69.02
63088;BME280;49173;43.164;27.786;2022-12-13T07:06:46;100245.22;;;2.23;68.57
63088;BME280;49173;43.164;27.786;2022-12-13T07:09:12;100237.22;;;2.25;68.61
63088;BME280;49173;43.164;27.786;2022-12-13T07:11:39;100244.13;;;2.32;69.36
63088;BME280;49173;43.164;27.786;2022-12-13T07:14:05;100245.75;;;2.37;69.00
63088;BME280;49173;43.164;27.786;2022-12-13T07:16:36;100245.72;;;2.40;68.66
63088;BME280;49173;43.164;27.786;2022-12-13T07:19:04;100252.66;;;2.44;69.29
63088;BME280;49173;43.164;27.786;2022-12-13T07:21:32;100259.63;;;2.48;68.97
63088;BME280;49173;43.164;27.786;2022-12-13T07:23:58;100264.03;;;2.50;69.43
63088;BME280;49173;43.164;27.786;2022-12-13T07:26:24;100262.25;;;2.50;69.31
63088;BME280;49173;43.164;27.786;2022-12-13T07:28:51;100260.59;;;2.44;67.95
63088;BME280;49173;43.164;27.786;2022-12-13T07:31:18;100274.84;;;2.40;68.40
63088;BME280;49173;43.164;27.786;2022-12-13T07:33:44;100271.34;;;2.38;69.21
63088;BME280;49173;43.164;27.786;2022-12-13T07:36:30;100275.03;;;2.33;68.46
63088;BME280;49173;43.164;27.786;2022-12-13T07:39:23;100274.91;;;2.37;69.01
63088;BME280;49173;43.164;27.786;2022-12-13T07:41:57;100292.53;;;2.38;67.95
63088;BME280;49173;43.164;27.786;2022-12-13T07:44:23;100296.03;;;2.39;67.75
63088;BME280;49173;43.164;27.786;2022-12-13T07:46:52;100290.66;;;2.43;67.94
63088;BME280;49173;43.164;27.786;2022-12-13T07:49:23;100300.19;;;2.51;69.41
63088;BME280;49173;43.164;27.786;2022-12-13T07:51:51;100304.59;;;2.52;68.54
63088;BME280;49173;43.164;27.786;2022-12-13T07:54:17;100308.00;;;2.57;68.59
63088;BME280;49173;43.164;27.786;2022-12-13T07:56:44;100308.88;;;2.57;67.04
63088;BME280;49173;43.164;27.786;2022-12-13T07:59:28;100315.13;;;2.55;67.88
63088;BME280;49173;43.164;27.786;2022-12-13T08:05:14;100309.69;;;2.61;67.12
63088;BME280;49173;43.164;27.786;2022-12-13T08:08:10;100324.59;;;2.65;67.54
63088;BME280;49173;43.164;27.786;2022-12-13T08:10:37;100330.72;;;2.67;67.35
63088;BME280;49173;43.164;27.786;2022-12-13T08:13:04;100330.66;;;2.70;67.25
63088;BME280;49173;43.164;27.786;2022-12-13T08:15:32;100327.09;;;2.71;66.63
63088;BME280;49173;43.164;27.786;2022-12-13T08:18:00;100332.31;;;2.74;67.00
63088;BME280;49173;43.164;27.786;2022-12-13T08:20:27;100349.94;;;2.77;66.83
63088;BME280;49173;43.164;27.786;2022-12-13T08:22:55;100348.94;;;2.82;66.24
63088;BME280;49173;43.164;27.786;2022-12-13T08:25:23;100333.84;;;2.84;65.33
63088;BME280;49173;43.164;27.786;2022-12-13T08:27:52;100345.31;;;2.85;66.18
63088;BME280;49173;43.164;27.786;2022-12-13T08:30:28;100342.72;;;2.83;65.63
63088;BME280;49173;43.164;27.786;2022-12-13T08:32:57;100339.16;;;2.84;66.64
63088;BME280;49173;43.164;27.786;2022-12-13T08:35:30;100336.50;;;2.84;66.55
63088;BME280;49173;43.164;27.786;2022-12-13T08:37:57;100344.41;;;2.86;65.94
63088;BME280;49173;43.164;27.786;2022-12-13T08:40:23;100337.41;;;2.83;65.05
63088;BME280;49173;43.164;27.786;2022-12-13T08:42:49;100335.69;;;2.81;65.75
63088;BME280;49173;43.164;27.786;2022-12-13T08:45:16;100326.81;;;2.83;66.20
63088;BME280;49173;43.164;27.786;2022-12-13T08:47:42;100317.09;;;2.84;66.11
63088;BME280;49173;43.164;27.786;2022-12-13T08:50:09;100316.22;;;2.83;65.60
63088;BME280;49173;43.164;27.786;2022-12-13T08:52:36;100324.28;;;2.79;66.08
63088;BME280;49173;43.164;27.786;2022-12-13T08:55:03;100324.16;;;2.83;65.67
63088;BME280;49173;43.164;27.786;2022-12-13T08:57:30;100330.34;;;2.84;65.13
63088;BME280;49173;43.164;27.786;2022-12-13T08:59:56;100347.13;;;2.84;65.79
63088;BME280;49173;43.164;27.786;2022-12-13T09:02:24;100358.50;;;2.88;65.60
63088;BME280;49173;43.164;27.786;2022-12-13T09:04:50;100362.09;;;2.85;65.85
63088;BME280;49173;43.164;27.786;2022-12-13T09:07:26;100358.41;;;2.92;66.10
63088;BME280;49173;43.164;27.786;2022-12-13T09:10:14;100358.44;;;2.91;65.45
63088;BME280;49173;43.164;27.786;2022-12-13T09:16:36;100361.72;;;3.00;65.10
63088;BME280;49173;43.164;27.786;2022-12-13T09:19:09;100357.28;;;3.01;64.58
63088;BME280;49173;43.164;27.786;2022-12-13T09:22:21;100354.47;;;3.09;64.98
63088;BME280;49173;43.164;27.786;2022-12-13T09:24:48;100342.91;;;3.11;64.30
63088;BME280;49173;43.164;27.786;2022-12-13T09:27:16;100346.41;;;3.13;64.83
63088;BME280;49173;43.164;27.786;2022-12-13T09:29:50;100339.25;;;3.15;65.65
63088;BME280;49173;43.164;27.786;2022-12-13T09:32:19;100347.41;;;3.08;64.61
63088;BME280;49173;43.164;27.786;2022-12-13T09:34:46;100346.50;;;3.10;65.36
63088;BME280;49173;43.164;27.786;2022-12-13T09:37:13;100339.31;;;3.14;65.43
63088;BME280;49173;43.164;27.786;2022-12-13T09:39:39;100330.38;;;3.18;65.62
63088;BME280;49173;43.164;27.786;2022-12-13T09:42:19;100323.19;;;3.21;65.64
63088;BME280;49173;43.164;27.786;2022-12-13T09:45:08;100332.06;;;3.20;64.67
63088;BME280;49173;43.164;27.786;2022-12-13T09:47:44;100320.66;;;3.17;64.52
63088;BME280;49173;43.164;27.786;2022-12-13T09:50:18;100313.59;;;3.17;65.11
63088;BME280;49173;43.164;27.786;2022-12-13T09:52:45;100319.84;;;3.15;64.64
63088;BME280;49173;43.164;27.786;2022-12-13T09:55:33;100308.31;;;3.17;64.74
63088;BME280;49173;43.164;27.786;2022-12-13T10:00:48;100308.31;;;3.17;65.18
63088;BME280;49173;43.164;27.786;2022-12-13T10:03:23;100307.34;;;3.20;64.81
63088;BME280;49173;43.164;27.786;2022-12-13T10:09:14;100300.09;;;3.26;64.88
63088;BME280;49173;43.164;27.786;2022-12-13T10:11:52;100294.75;;;3.28;64.48
63088;BME280;49173;43.164;27.786;2022-12-13T10:14:34;100283.22;;;3.29;64.95
63088;BME280;49173;43.164;27.786;2022-12-13T10:17:07;100276.06;;;3.33;64.38
63088;BME280;49173;43.164;27.786;2022-12-13T10:19:37;100270.78;;;3.31;63.67
63088;BME280;49173;43.164;27.786;2022-12-13T10:22:11;100273.47;;;3.29;63.88
63088;BME280;49173;43.164;27.786;2022-12-13T10:24:59;100267.31;;;3.29;64.83
63088;BME280;49173;43.164;27.786;2022-12-13T10:27:42;100260.22;;;3.29;64.77
63088;BME280;49173;43.164;27.786;2022-12-13T10:30:19;100256.53;;;3.35;63.34
63088;BME280;49173;43.164;27.786;2022-12-13T10:33:39;100255.72;;;3.33;63.34
63088;BME280;49173;43.164;27.786;2022-12-13T10:36:38;100261.84;;;3.35;64.02
63088;BME280;49173;43.164;27.786;2022-12-13T10:39:17;100247.66;;;3.36;64.07
63088;BME280;49173;43.164;27.786;2022-12-13T10:42:02;100249.56;;;3.31;63.27
63088;BME280;49173;43.164;27.786;2022-12-13T10:44:48;100240.84;;;3.27;64.34
63088;BME280;49173;43.164;27.786;2022-12-13T10:47:17;100233.03;;;3.21;64.51
63088;BME280;49173;43.164;27.786;2022-12-13T10:49:58;100226.09;;;3.17;64.73
63088;BME280;49173;43.164;27.786;2022-12-13T10:52:33;100224.16;;;3.22;64.07
63088;BME280;49173;43.164;27.786;2022-12-13T10:55:21;100210.13;;;3.19;64.44
63088;BME280;49173;43.164;27.786;2022-12-13T10:57:54;100203.81;;;3.23;64.20
63088;BME280;49173;43.164;27.786;2022-12-13T11:00:35;100213.50;;;3.25;63.78
63088;BME280;49173;43.164;27.786;2022-12-13T11:03:03;100217.94;;;3.25;63.57
63088;BME280;49173;43.164;27.786;2022-12-13T11:05:35;100219.66;;;3.26;63.02
63088;BME280;49173;43.164;27.786;2022-12-13T11:08:25;100212.63;;;3.25;64.16
63088;BME280;49173;43.164;27.786;2022-12-13T11:11:03;100216.16;;;3.24;63.49
63088;BME280;49173;43.164;27.786;2022-12-13T11:13:37;100214.44;;;3.23;63.63
63088;BME280;49173;43.164;27.786;2022-12-13T11:16:43;100216.16;;;3.24;64.43
63088;BME280;49173;43.164;27.786;2022-12-13T11:19:30;100216.22;;;3.22;64.00
63088;BME280;49173;43.164;27.786;2022-12-13T11:22:01;100222.53;;;3.18;63.65
63088;BME280;49173;43.164;27.786;2022-12-13T11:24:34;100222.38;;;3.24;64.08
63088;BME280;49173;43.164;27.786;2022-12-13T11:36:03;100221.25;;;3.33;64.25
63088;BME280;49173;43.164;27.786;2022-12-13T11:42:00;100235.22;;;3.38;62.63
63088;BME280;49173;43.164;27.786;2022-12-13T11:47:21;100232.50;;;3.41;62.66
63088;BME280;49173;43.164;27.786;2022-12-13T11:50:50;100235.84;;;3.48;61.97
63088;BME280;49173;43.164;27.786;2022-12-13T11:53:58;100239.44;;;3.45;61.48
63088;BME280;49173;43.164;27.786;2022-12-13T11:56:43;100233.97;;;3.51;62.09
63088;BME280;49173;43.164;27.786;2022-12-13T12:02:04;100224.22;;;3.52;61.49
63088;BME280;49173;43.164;27.786;2022-12-13T12:07:19;100221.38;;;3.60;61.43
63088;BME280;49173;43.164;27.786;2022-12-13T12:09:58;100220.47;;;3.59;60.71
63088;BME280;49173;43.164;27.786;2022-12-13T12:12:31;100224.78;;;3.63;60.59
63088;BME280;49173;43.164;27.786;2022-12-13T12:15:36;100217.63;;;3.67;59.93
63088;BME280;49173;43.164;27.786;2022-12-13T12:18:35;100220.34;;;3.64;59.17
63088;BME280;49173;43.164;27.786;2022-12-13T12:35:28;100262.69;;;3.68;59.62
63088;BME280;49173;43.164;27.786;2022-12-13T12:38:17;100267.09;;;3.69;59.54
63088;BME280;49173;43.164;27.786;2022-12-13T12:43:32;100272.06;;;3.80;59.54
63088;BME280;49173;43.164;27.786;2022-12-13T12:46:36;100275.47;;;3.85;58.73
63088;BME280;49173;43.164;27.786;2022-12-13T12:54:57;100280.31;;;4.02;58.29
63088;BME280;49173;43.164;27.786;2022-12-13T12:58:02;100278.69;;;3.96;57.61
63088;BME280;49173;43.164;27.786;2022-12-13T13:00:55;100281.31;;;3.98;58.07
63088;BME280;49173;43.164;27.786;2022-12-13T13:03:27;100283.16;;;3.94;57.71
63088;BME280;49173;43.164;27.786;2022-12-13T13:06:04;100277.03;;;3.92;57.81
63088;BME280;49173;43.164;27.786;2022-12-13T13:11:11;100286.16;;;3.83;56.30
63088;BME280;49173;43.164;27.786;2022-12-13T13:13:47;100293.34;;;3.78;56.66
63088;BME280;49173;43.164;27.786;2022-12-13T13:16:37;100302.25;;;3.77;57.33
63088;BME280;49173;43.164;27.786;2022-12-13T13:21:47;100305.00;;;3.73;57.68
63088;BME280;49173;43.164;27.786;2022-12-13T13:24:22;100304.19;;;3.71;57.86
63088;BME280;49173;43.164;27.786;2022-12-13T13:26:54;100317.47;;;3.71;57.27
63088;BME280;49173;43.164;27.786;2022-12-13T13:34:53;100321.94;;;3.69;57.18
63088;BME280;49173;43.164;27.786;2022-12-13T13:43:12;100339.13;;;3.55;57.44
63088;BME280;49173;43.164;27.786;2022-12-13T13:48:46;100345.56;;;3.45;57.48
63088;BME280;49173;43.164;27.786;2022-12-13T13:52:14;100340.34;;;3.42;58.14
63088;BME280;49173;43.164;27.786;2022-12-13T14:08:37;100363.75;;;3.26;59.72
63088;BME280;49173;43.164;27.786;2022-12-13T14:17:13;100387.97;;;3.13;59.72
63088;BME280;49173;43.164;27.786;2022-12-13T14:20:36;100390.75;;;3.07;59.97
63088;BME280;49173;43.164;27.786;2022-12-13T14:26:24;100398.94;;;2.97;59.31
63088;BME280;49173;43.164;27.786;2022-12-13T14:28:58;100388.50;;;2.90;59.86
63088;BME280;49173;43.164;27.786;2022-12-13T14:31:39;100400.88;;;2.89;59.93
63088;BME280;49173;43.164;27.786;2022-12-13T14:34:13;100392.16;;;2.84;60.04
63088;BME280;49173;43.164;27.786;2022-12-13T14:36:47;100401.13;;;2.79;59.85
63088;BME280;49173;43.164;27.786;2022-12-13T14:39:19;100397.69;;;2.75;60.38
63088;BME280;49173;43.164;27.786;2022-12-13T14:41:48;100398.69;;;2.69;60.42
63088;BME280;49173;43.164;27.786;2022-12-13T14:44:23;100401.44;;;2.65;60.48
63088;BME280;49173;43.164;27.786;2022-12-13T14:46:59;100401.63;;;2.56;60.67
63088;BME280;49173;43.164;27.786;2022-12-13T14:49:28;100418.53;;;2.50;61.37
63088;BME280;49173;43.164;27.786;2022-12-13T14:52:20;100432.97;;;2.35;61.83
63088;BME280;49173;43.164;27.786;2022-12-13T14:57:22;100429.50;;;2.32;61.66
63088;BME280;49173;43.164;27.786;2022-12-13T14:59:52;100439.28;;;2.28;62.17
63088;BME280;49173;43.164;27.786;2022-12-13T15:02:26;100444.63;;;2.25;62.74
63088;BME280;49173;43.164;27.786;2022-12-13T15:05:00;100448.31;;;2.18;63.00
63088;BME280;49173;43.164;27.786;2022-12-13T15:07:40;100456.34;;;2.13;63.06
63088;BME280;49173;43.164;27.786;2022-12-13T15:12:43;100460.84;;;2.08;63.82
63088;BME280;49173;43.164;27.786;2022-12-13T15:15:35;100472.38;;;2.04;63.90
63088;BME280;49173;43.164;27.786;2022-12-13T15:18:40;100469.84;;;2.00;63.92
63088;BME280;49173;43.164;27.786;2022-12-13T15:21:35;100473.44;;;1.96;63.72
63088;BME280;49173;43.164;27.786;2022-12-13T15:24:06;100483.25;;;1.90;63.01
63088;BME280;49173;43.164;27.786;2022-12-13T15:26:37;100470.88;;;1.91;62.97
63088;BME280;49173;43.164;27.786;2022-12-13T15:29:06;100483.22;;;1.92;63.90
63088;BME280;49173;43.164;27.786;2022-12-13T15:31:33;100489.31;;;1.96;63.60
63088;BME280;49173;43.164;27.786;2022-12-13T15:36:57;100508.75;;;1.95;64.08
63088;BME280;49173;43.164;27.786;2022-12-13T15:39:25;100511.31;;;1.99;63.21
63088;BME280;49173;43.164;27.786;2022-12-13T15:41:54;100519.25;;;1.99;63.29